createdAt,value
2023-04-20T00:08:53.664Z,76.0
2023-04-20T00:21:53.684Z,77.0
2023-04-20T00:34:53.688Z,77.0
2023-04-20T00:49:53.690Z,77.0
2023-04-20T01:04:53.697Z,80.0
2023-04-20T01:17:53.772Z,81.0
2023-04-20T01:30:53.689Z,80.0
2023-04-20T01:43:53.697Z,80.0
2023-04-20T01:56:53.710Z,82.0
2023-04-20T02:09:53.728Z,82.0
2023-04-20T02:22:53.711Z,82.0
2023-04-20T02:35:53.723Z,82.0
2023-04-20T02:49:53.725Z,81.0
2023-04-20T03:02:53.802Z,83.0
2023-04-20T03:15:53.723Z,85.0
2023-04-20T03:29:53.721Z,90.0
2023-04-20T03:42:53.738Z,91.0
2023-04-20T03:55:53.722Z,92.0
2023-04-20T04:08:53.742Z,94.0
2023-04-20T04:21:53.727Z,94.0
2023-04-20T04:46:53.747Z,95.0
2023-04-20T05:14:53.757Z,95.0
2023-04-20T05:28:53.750Z,96.0
2023-04-20T05:43:53.781Z,96.0
2023-04-20T05:57:53.785Z,96.0
2023-04-20T06:11:53.925Z,96.0
2023-04-20T06:25:53.852Z,96.0
2023-04-20T06:39:53.805Z,96.0
2023-04-20T06:53:53.782Z,96.0
2023-04-20T07:07:53.807Z,95.0
2023-04-20T07:21:53.783Z,93.0
2023-04-20T07:35:53.807Z,92.0
2023-04-20T07:49:53.824Z,92.0
2023-04-20T08:03:53.867Z,92.0
2023-04-20T08:17:53.815Z,91.0
2023-04-20T08:31:53.852Z,90.0
2023-04-20T08:45:53.818Z,90.0
2023-04-20T08:59:53.819Z,90.0
2023-04-20T09:13:53.817Z,91.0
2023-04-20T09:27:53.816Z,91.0
2023-04-20T09:41:53.839Z,89.0
2023-04-20T09:55:53.830Z,85.0
2023-04-20T10:09:53.828Z,82.0
2023-04-20T10:23:53.852Z,82.0
2023-04-20T10:37:53.849Z,81.0
2023-04-20T10:51:54.885Z,82.0
2023-04-20T11:05:53.848Z,83.0
2023-04-20T11:19:53.845Z,86.0
2023-04-20T11:33:53.875Z,87.0
2023-04-20T11:47:53.889Z,88.0
2023-04-20T12:01:53.895Z,89.0
2023-04-20T12:15:53.880Z,89.0
2023-04-20T12:29:53.883Z,89.0
2023-04-20T12:43:53.894Z,88.0
2023-04-20T12:57:53.879Z,87.0
2023-04-20T13:11:53.926Z,88.0
2023-04-20T13:25:53.884Z,90.0
2023-04-20T13:39:53.891Z,91.0
2023-04-20T13:53:53.914Z,92.0
2023-04-20T14:07:53.885Z,91.0
2023-04-20T14:21:53.904Z,91.0
2023-04-20T14:35:53.916Z,91.0
2023-04-20T14:49:53.906Z,92.0
2023-04-20T15:03:54.026Z,92.0
2023-04-20T15:17:53.953Z,93.0
2023-04-20T15:32:53.922Z,92.0
2023-04-20T16:11:53.937Z,86.0
2023-04-20T16:53:53.942Z,87.0
2023-04-20T17:07:53.959Z,88.0
2023-04-20T17:21:53.958Z,88.0
2023-04-20T17:58:53.969Z,92.0
2023-04-20T18:12:53.979Z,93.0
2023-04-20T18:26:53.963Z,94.0
2023-04-20T18:40:54.040Z,94.0
2023-04-20T18:53:53.983Z,95.0
2023-04-20T19:06:54.001Z,95.0
2023-04-20T19:19:54.030Z,95.0
2023-04-20T19:32:54.028Z,95.0
2023-04-20T19:45:54.043Z,96.0
2023-04-20T19:58:54.046Z,96.0
2023-04-20T20:11:54.032Z,96.0
2023-04-20T20:24:54.174Z,96.0
2023-04-20T20:37:54.070Z,95.0
2023-04-20T20:50:54.040Z,95.0
2023-04-20T21:03:54.287Z,95.0
2023-04-20T21:16:54.078Z,96.0
2023-04-20T21:29:54.134Z,96.0
2023-04-20T21:42:54.090Z,96.0
2023-04-20T21:55:54.085Z,97.0
2023-04-20T22:08:54.091Z,97.0
2023-04-20T22:21:54.083Z,97.0
2023-04-20T22:34:54.082Z,97.0
2023-04-20T22:47:54.166Z,97.0
2023-04-20T23:00:54.114Z,97.0
2023-04-20T23:13:54.083Z,97.0
2023-04-20T23:26:54.106Z,97.0
2023-04-20T23:39:54.094Z,97.0
2023-04-20T23:52:54.104Z,96.0
